Time;durP1;ratioP1;P1;durP2;ratioP2;P2;SDS_P1;SDS_P2;PMS_P1;PMS_P2;Temp;Humidity;BMP_temperature;BMP_pressure;BME280_temperature;BME280_humidity;BME280_pressure;Samples;Min_cycle;Max_cycle;Signal;HPM_P1;HPM_P2
2022/11/07 00:01:57;;;;;;;3.93;1.40;;;8.50;99.90;;;;;;4230427;28;20209;-71
2022/11/07 00:03:57;;;;;;;1.70;1.20;;;8.60;99.90;;;;;;4231385;28;20708;-71
2022/11/07 00:05:58;;;;;;;2.37;1.20;;;8.70;99.90;;;;;;4231361;28;20185;-71
2022/11/07 00:07:59;;;;;;;2.33;1.00;;;8.70;99.90;;;;;;4231177;28;20182;-71
2022/11/07 00:09:59;;;;;;;3.50;1.20;;;8.70;99.90;;;;;;4231033;28;20198;-71
2022/11/07 00:12:00;;;;;;;2.57;1.53;;;8.70;99.90;;;;;;4232323;28;20173;-72
2022/11/07 00:14:01;;;;;;;3.03;1.10;;;8.70;99.90;;;;;;4236638;28;20266;-71
2022/11/07 00:16:05;;;;;;;2.30;1.30;;;8.70;99.90;;;;;;4232668;28;20175;-70
2022/11/07 00:18:06;;;;;;;2.90;1.40;;;8.80;99.90;;;;;;4231716;28;20178;-71
2022/11/07 00:20:07;;;;;;;2.30;1.30;;;8.90;99.90;;;;;;4231218;28;20750;-71
2022/11/07 00:22:08;;;;;;;2.50;1.23;;;8.90;99.90;;;;;;4231044;27;20175;-71
2022/11/07 00:24:09;;;;;;;2.07;1.30;;;8.90;99.90;;;;;;4231014;28;20213;-71
2022/11/07 00:26:13;;;;;;;1.30;1.20;;;8.90;99.90;;;;;;4231219;28;20193;-70
2022/11/07 00:28:14;;;;;;;2.40;1.10;;;8.90;99.90;;;;;;4231347;28;20654;-70
2022/11/07 00:30:14;;;;;;;4.43;1.30;;;8.90;99.90;;;;;;4230700;28;20249;-71
2022/11/07 00:32:15;;;;;;;3.33;1.30;;;9.00;99.90;;;;;;4230828;28;20224;-71
2022/11/07 00:34:16;;;;;;;1.67;1.33;;;9.10;99.90;;;;;;4231183;28;20178;-71
2022/11/07 00:36:26;;;;;;;2.57;1.03;;;9.10;99.90;;;;;;4230966;28;20170;-70
2022/11/07 00:38:27;;;;;;;3.50;3.20;;;9.00;99.90;;;;;;4230720;28;20188;-70
2022/11/07 00:40:27;;;;;;;2.57;1.30;;;8.80;99.90;;;;;;4230154;28;20182;-70
2022/11/07 00:42:28;;;;;;;2.70;1.20;;;8.90;99.90;;;;;;4230680;28;20540;-70
2022/11/07 00:44:29;;;;;;;2.60;1.57;;;8.90;99.90;;;;;;4230778;28;20186;-70
2022/11/07 00:46:29;;;;;;;5.67;1.23;;;8.90;99.90;;;;;;4230689;28;20196;-71
2022/11/07 00:48:31;;;;;;;2.43;1.23;;;9.00;99.90;;;;;;4229466;28;20194;-71
2022/11/07 00:50:32;;;;;;;4.07;1.00;;;8.90;99.90;;;;;;4230210;28;20201;-71
2022/11/07 00:52:32;;;;;;;4.17;2.37;;;8.90;99.90;;;;;;4229215;28;20182;-71
2022/11/07 00:54:34;;;;;;;2.70;1.00;;;8.80;99.90;;;;;;4230002;28;20231;-71
2022/11/07 00:56:34;;;;;;;3.23;1.20;;;8.90;99.90;;;;;;4228629;28;20262;-70
2022/11/07 00:58:35;;;;;;;1.83;1.57;;;8.70;99.90;;;;;;4230245;28;20206;-71
2022/11/07 01:00:37;;;;;;;2.07;1.10;;;8.70;99.90;;;;;;4229787;28;20724;-71
2022/11/07 01:02:37;;;;;;;2.70;1.17;;;8.80;99.90;;;;;;4230052;28;20178;-71
2022/11/07 01:06:58;;;;;;;2.17;0.87;;;8.90;99.90;;;;;;4230249;28;20739;-71
2022/11/07 01:08:59;;;;;;;2.53;1.43;;;8.90;99.90;;;;;;4228760;28;20262;-71
2022/11/07 01:11:05;;;;;;;2.07;1.10;;;8.90;99.90;;;;;;4229306;28;20202;-71
2022/11/07 01:13:06;;;;;;;2.53;1.10;;;8.90;99.90;;;;;;4230186;28;20170;-71
2022/11/07 01:15:07;;;;;;;1.60;1.50;;;8.90;99.90;;;;;;4230262;28;20170;-71
2022/11/07 01:17:08;;;;;;;4.00;1.00;;;9.10;99.90;;;;;;4229873;28;20227;-71
2022/11/07 01:19:09;;;;;;;1.33;1.00;;;9.00;99.90;;;;;;4229905;28;20664;-72
2022/11/07 01:21:10;;;;;;;2.10;0.90;;;9.00;99.90;;;;;;4229617;28;20186;-71
2022/11/07 01:23:11;;;;;;;1.10;0.93;;;9.10;99.90;;;;;;4229735;28;20182;-71
2022/11/07 01:25:11;;;;;;;3.47;1.37;;;9.20;99.90;;;;;;4229695;28;20198;-70
2022/11/07 01:27:12;;;;;;;3.90;1.47;;;9.20;99.90;;;;;;4229983;28;20186;-71
2022/11/07 01:29:14;;;;;;;1.37;1.27;;;9.20;99.90;;;;;;4226762;28;20198;-71
2022/11/07 01:31:16;;;;;;;2.23;0.97;;;9.20;99.90;;;;;;4212877;28;20213;-71
2022/11/07 01:33:17;;;;;;;3.67;1.23;;;9.30;99.90;;;;;;4213492;28;20183;-71
2022/11/07 01:35:18;;;;;;;0.97;0.87;;;9.40;99.90;;;;;;4212890;28;20365;-70
2022/11/07 01:37:18;;;;;;;1.80;0.90;;;9.40;99.90;;;;;;4212861;28;20174;-71
2022/11/07 01:39:19;;;;;;;2.10;1.00;;;9.40;99.90;;;;;;4212848;28;20561;-73
2022/11/07 01:41:24;;;;;;;1.47;1.20;;;9.10;99.90;;;;;;4212200;28;20618;-71
2022/11/07 01:43:47;;;;;;;1.47;1.00;;;9.00;99.90;;;;;;4213302;28;20178;-71
2022/11/07 01:45:47;;;;;;;2.53;1.17;;;9.10;99.90;;;;;;4212834;28;20293;-71
2022/11/07 01:47:50;;;;;;;2.23;1.00;;;9.10;99.90;;;;;;4211768;28;20190;-70
2022/11/07 01:49:52;;;;;;;2.33;1.20;;;8.90;99.90;;;;;;4211331;28;20233;-71
2022/11/07 01:52:14;;;;;;;1.40;0.90;;;8.90;99.90;;;;;;4212202;28;20186;-71
2022/11/07 01:54:23;;;;;;;3.43;3.03;;;8.90;99.90;;;;;;4213105;28;20170;-71
2022/11/07 01:56:28;;;;;;;0.77;0.77;;;8.90;99.90;;;;;;4211794;28;20612;-71
2022/11/07 01:58:29;;;;;;;0.93;0.80;;;8.80;99.90;;;;;;4211309;28;20187;-71
2022/11/07 02:00:31;;;;;;;1.07;0.80;;;8.80;99.90;;;;;;4228406;28;20741;-72
2022/11/07 02:02:32;;;;;;;1.07;0.60;;;8.80;99.90;;;;;;4229363;28;20267;-71
2022/11/07 02:04:33;;;;;;;2.27;0.97;;;8.90;99.90;;;;;;4229502;28;20257;-71
2022/11/07 02:06:52;;;;;;;3.23;3.03;;;8.90;99.90;;;;;;4227954;28;20189;-71
2022/11/07 02:08:53;;;;;;;4.10;1.63;;;8.90;99.90;;;;;;4228277;28;20194;-71
2022/11/07 02:10:56;;;;;;;2.83;1.07;;;8.90;99.90;;;;;;4228709;28;20728;-71
2022/11/07 02:12:58;;;;;;;4.30;1.23;;;8.90;99.90;;;;;;4229074;28;20569;-71
2022/11/07 02:15:00;;;;;;;2.40;1.20;;;8.90;99.90;;;;;;4233952;28;20181;-70
2022/11/07 02:17:00;;;;;;;2.37;1.03;;;9.00;99.90;;;;;;4234124;28;20171;-71
2022/11/07 02:19:06;;;;;;;3.17;1.20;;;9.00;99.90;;;;;;4230275;28;20602;-71
2022/11/07 02:21:20;;;;;;;1.80;1.70;;;9.00;99.90;;;;;;4227932;28;20281;-71
2022/11/07 02:24:07;;;;;;;3.67;1.63;;;9.00;99.90;;;;;;4229648;28;20181;-71
2022/11/07 02:26:08;;;;;;;2.73;1.40;;;8.90;99.90;;;;;;4177140;28;20671;-72
2022/11/07 02:28:10;;;;;;;2.30;1.30;;;8.90;99.90;;;;;;4160467;28;20375;-72
2022/11/07 02:30:24;;;;;;;2.73;1.43;;;8.90;99.90;;;;;;4160110;28;20240;-70
2022/11/07 02:32:25;;;;;;;4.50;1.23;;;9.00;99.90;;;;;;4227934;28;20172;-71
2022/11/07 02:34:26;;;;;;;8.03;1.83;;;9.00;99.90;;;;;;4229026;28;20173;-71
2022/11/07 02:36:27;;;;;;;5.43;1.40;;;9.00;99.90;;;;;;4229102;28;20680;-71
2022/11/07 02:38:36;;;;;;;2.37;1.30;;;9.00;99.90;;;;;;4227823;28;20202;-71
2022/11/07 02:40:38;;;;;;;2.80;2.43;;;9.00;99.90;;;;;;4228516;28;20650;-71
2022/11/07 02:42:44;;;;;;;2.23;1.00;;;9.10;99.90;;;;;;4210876;28;20359;-71
2022/11/07 02:44:46;;;;;;;1.87;1.20;;;9.00;99.90;;;;;;4229040;28;20182;-71
2022/11/07 02:46:47;;;;;;;4.50;1.47;;;9.10;99.90;;;;;;4227657;28;20185;-71
2022/11/07 02:48:53;;;;;;;4.30;1.30;;;9.10;99.90;;;;;;4228699;28;20688;-71
2022/11/07 02:50:54;;;;;;;3.33;1.70;;;9.10;99.90;;;;;;4228203;28;20222;-71
2022/11/07 02:52:54;;;;;;;3.00;2.73;;;9.10;99.90;;;;;;4228921;28;20542;-71
2022/11/07 02:54:55;;;;;;;4.60;1.40;;;9.10;99.90;;;;;;4228753;28;20220;-71
2022/11/07 02:56:56;;;;;;;3.57;2.10;;;9.20;99.90;;;;;;4228874;28;20188;-71
2022/11/07 02:58:57;;;;;;;6.20;1.30;;;9.10;99.90;;;;;;4228700;28;20244;-71
2022/11/07 03:01:05;;;;;;;6.77;4.87;;;9.10;99.90;;;;;;4227024;28;20181;-70
2022/11/07 03:03:06;;;;;;;1.93;1.10;;;9.10;99.90;;;;;;4228624;28;20167;-70
2022/11/07 03:05:07;;;;;;;4.37;3.30;;;9.10;99.90;;;;;;4228597;28;20204;-71
2022/11/07 03:07:08;;;;;;;3.20;1.87;;;9.10;99.90;;;;;;4228484;28;20956;-70
2022/11/07 03:09:08;;;;;;;12.40;11.53;;;9.10;99.90;;;;;;4228803;28;20251;-71
2022/11/07 03:11:11;;;;;;;2.97;2.20;;;9.10;99.90;;;;;;4243425;28;20214;-71
2022/11/07 03:13:11;;;;;;;6.27;1.93;;;9.10;99.90;;;;;;4228478;28;20179;-71
2022/11/07 03:15:13;;;;;;;5.53;1.70;;;9.10;99.90;;;;;;4228587;28;20171;-71
2022/11/07 03:17:13;;;;;;;4.00;1.90;;;9.20;99.90;;;;;;4228949;28;20182;-71
2022/11/07 03:19:14;;;;;;;3.03;1.13;;;9.20;99.90;;;;;;4230195;28;20195;-71
2022/11/07 03:21:15;;;;;;;3.97;1.73;;;9.20;99.90;;;;;;4229766;28;20265;-71
2022/11/07 03:23:15;;;;;;;7.63;1.53;;;9.30;99.90;;;;;;4220373;28;20260;-72
2022/11/07 03:25:16;;;;;;;2.00;1.10;;;9.30;99.90;;;;;;4214824;28;20214;-71
2022/11/07 03:27:18;;;;;;;5.87;2.00;;;9.30;99.90;;;;;;4214820;28;20186;-71
2022/11/07 03:29:18;;;;;;;2.23;1.60;;;9.30;99.90;;;;;;4215055;28;20199;-71
2022/11/07 03:31:19;;;;;;;4.57;3.10;;;9.30;99.90;;;;;;4213953;28;20199;-71
2022/11/07 03:33:20;;;;;;;5.57;1.57;;;9.20;99.90;;;;;;4214856;28;20742;-71
2022/11/07 03:35:21;;;;;;;3.10;1.60;;;9.20;99.90;;;;;;4211367;28;21091;-71
2022/11/07 03:37:21;;;;;;;4.93;1.40;;;9.10;99.90;;;;;;4230998;28;20189;-71
2022/11/07 03:39:22;;;;;;;3.83;1.00;;;9.10;99.90;;;;;;4230970;28;20610;-71
2022/11/07 03:41:23;;;;;;;3.50;1.37;;;9.10;99.90;;;;;;4231043;28;20181;-71
2022/11/07 03:43:24;;;;;;;2.93;2.73;;;9.20;99.90;;;;;;4231695;28;20204;-71
2022/11/07 03:45:25;;;;;;;2.47;1.30;;;9.20;99.90;;;;;;4231497;28;20319;-71
2022/11/07 03:47:25;;;;;;;4.53;2.03;;;9.20;99.90;;;;;;4231505;28;20178;-72
2022/11/07 03:49:26;;;;;;;6.67;1.80;;;9.10;99.90;;;;;;4230528;28;20206;-71
2022/11/07 03:51:26;;;;;;;4.83;1.20;;;9.20;99.90;;;;;;4229878;28;20205;-71
2022/11/07 03:53:27;;;;;;;8.60;2.80;;;9.20;99.90;;;;;;4230488;28;20186;-71
2022/11/07 03:55:28;;;;;;;4.93;4.20;;;9.30;99.90;;;;;;4231309;28;20245;-71
2022/11/07 03:57:28;;;;;;;5.37;4.90;;;9.20;99.90;;;;;;4231313;28;20685;-71
2022/11/07 03:59:29;;;;;;;5.70;1.73;;;9.20;99.90;;;;;;4231451;28;20263;-71
2022/11/07 04:01:30;;;;;;;3.57;1.53;;;9.20;99.90;;;;;;4230519;28;20265;-71
2022/11/07 04:03:31;;;;;;;5.93;5.37;;;9.20;99.90;;;;;;4230959;28;20185;-71
2022/11/07 04:05:32;;;;;;;7.07;1.80;;;9.40;99.90;;;;;;4230624;28;20265;-72
2022/11/07 04:07:33;;;;;;;2.03;1.10;;;9.40;99.90;;;;;;4231083;28;20933;-71
2022/11/07 04:09:33;;;;;;;2.50;1.23;;;9.50;99.90;;;;;;4231232;28;20197;-71
2022/11/07 04:18:32;;;;;;;2.07;1.10;;;9.40;99.90;;;;;;4238553;28;20722;-70
2022/11/07 04:20:33;;;;;;;3.90;1.53;;;9.40;99.90;;;;;;4231461;28;20170;-71
2022/11/07 04:22:34;;;;;;;3.30;1.20;;;9.40;99.90;;;;;;4231322;28;20217;-70
2022/11/07 04:24:35;;;;;;;1.77;1.07;;;9.40;99.90;;;;;;4231131;28;20198;-71
2022/11/07 04:28:54;;;;;;;5.23;1.30;;;9.40;99.90;;;;;;4231088;28;20212;-70
2022/11/07 04:30:55;;;;;;;3.13;1.27;;;9.40;99.90;;;;;;4229916;28;20229;-69
2022/11/07 04:32:59;;;;;;;1.93;1.10;;;9.40;99.90;;;;;;4230788;28;20170;-70
2022/11/07 04:35:00;;;;;;;3.43;1.33;;;9.50;99.90;;;;;;4230797;28;20170;-70
2022/11/07 04:37:00;;;;;;;4.80;3.87;;;9.50;99.90;;;;;;4231146;28;20665;-70
2022/11/07 04:39:01;;;;;;;11.10;10.10;;;9.50;99.90;;;;;;4231223;28;20760;-71
2022/11/07 04:41:03;;;;;;;3.53;1.90;;;9.40;99.90;;;;;;4230494;28;20223;-70
2022/11/07 04:43:07;;;;;;;2.67;0.90;;;9.40;99.90;;;;;;4230719;28;20166;-70
2022/11/07 04:45:09;;;;;;;6.13;3.27;;;9.40;99.90;;;;;;4230471;28;20227;-71
2022/11/07 04:47:10;;;;;;;1.90;1.03;;;9.50;99.90;;;;;;4230513;28;20354;-70
2022/11/07 04:49:13;;;;;;;8.20;7.57;;;9.40;99.90;;;;;;4230932;28;20262;-70
2022/11/07 04:51:19;;;;;;;2.20;1.13;;;9.50;99.90;;;;;;4229711;28;20195;-70
2022/11/07 04:53:20;;;;;;;3.93;2.73;;;9.40;99.90;;;;;;4230397;28;20636;-70
2022/11/07 04:55:25;;;;;;;4.80;1.10;;;9.50;99.90;;;;;;4230274;28;20182;-70
2022/11/07 04:57:25;;;;;;;5.07;1.40;;;9.40;99.90;;;;;;4230269;28;20174;-71
2022/11/07 04:59:26;;;;;;;3.50;1.70;;;9.50;99.90;;;;;;4230338;28;20289;-70
2022/11/07 05:01:27;;;;;;;3.33;1.60;;;9.50;99.90;;;;;;4229428;28;20174;-70
2022/11/07 05:03:27;;;;;;;3.97;3.57;;;9.50;99.90;;;;;;4230113;28;20185;-71
2022/11/07 05:05:28;;;;;;;4.47;3.53;;;9.50;99.90;;;;;;4229884;28;20185;-70
2022/11/07 05:07:29;;;;;;;3.50;1.30;;;9.40;99.90;;;;;;4230209;28;20178;-71
2022/11/07 05:09:29;;;;;;;1.83;1.20;;;9.50;99.90;;;;;;4230150;28;20198;-70
2022/11/07 05:11:30;;;;;;;3.90;1.53;;;9.50;99.90;;;;;;4227757;28;20289;-70
2022/11/07 05:13:31;;;;;;;3.00;1.50;;;9.40;99.90;;;;;;4229736;28;20331;-71
2022/11/07 05:15:31;;;;;;;2.40;1.90;;;9.40;99.90;;;;;;4229544;28;20649;-71
2022/11/07 05:17:32;;;;;;;5.77;2.40;;;9.40;99.90;;;;;;4229618;28;20580;-71
2022/11/07 05:19:33;;;;;;;5.93;3.97;;;9.50;99.90;;;;;;4229624;28;20194;-71
2022/11/07 05:21:33;;;;;;;3.47;1.40;;;9.50;99.90;;;;;;4229025;28;20174;-71
2022/11/07 05:23:34;;;;;;;3.67;1.50;;;9.50;99.90;;;;;;4229546;28;20178;-71
2022/11/07 05:25:35;;;;;;;2.73;1.33;;;9.50;99.90;;;;;;4229684;28;20730;-71
2022/11/07 05:27:35;;;;;;;3.10;0.90;;;9.50;99.90;;;;;;4225773;28;20579;-71
2022/11/07 05:29:36;;;;;;;3.73;1.10;;;9.50;99.90;;;;;;4212641;28;20211;-71
2022/11/07 05:31:37;;;;;;;7.33;1.13;;;9.50;99.90;;;;;;4211994;28;20210;-71
2022/11/07 05:33:37;;;;;;;1.53;0.97;;;9.60;99.90;;;;;;4212750;28;20175;-70
2022/11/07 05:35:38;;;;;;;5.97;5.53;;;9.60;99.90;;;;;;4212765;28;20171;-71
2022/11/07 05:37:39;;;;;;;4.70;4.17;;;9.50;99.90;;;;;;4212489;28;20194;-71
2022/11/07 05:39:40;;;;;;;4.57;1.30;;;9.40;99.90;;;;;;4212549;28;20195;-71
2022/11/07 05:41:40;;;;;;;3.03;1.00;;;9.50;99.90;;;;;;4211300;28;20319;-70
2022/11/07 05:43:41;;;;;;;3.63;1.20;;;9.60;99.90;;;;;;4212505;28;20182;-71
2022/11/07 05:45:42;;;;;;;1.80;0.93;;;9.60;99.90;;;;;;4213189;28;20186;-70
2022/11/07 05:47:42;;;;;;;4.03;1.20;;;9.70;99.90;;;;;;4238443;27;20190;-71
2022/11/07 05:49:43;;;;;;;4.00;1.17;;;9.70;99.90;;;;;;4237565;27;20225;-70
2022/11/07 05:51:44;;;;;;;3.13;1.17;;;9.50;99.90;;;;;;4244816;27;20242;-71
2022/11/07 05:53:45;;;;;;;4.47;1.40;;;9.40;99.90;;;;;;4246420;27;20181;-70
2022/11/07 05:55:46;;;;;;;3.87;1.30;;;9.40;99.90;;;;;;4246652;27;20209;-70
2022/11/07 05:57:48;;;;;;;4.53;1.10;;;9.40;99.90;;;;;;4246514;27;20315;-71
2022/11/07 05:59:49;;;;;;;7.13;6.47;;;9.40;99.90;;;;;;4246256;27;20206;-71
2022/11/07 06:01:51;;;;;;;3.57;1.70;;;9.40;99.90;;;;;;4238805;27;20630;-70
2022/11/07 06:03:52;;;;;;;6.10;1.30;;;9.50;99.90;;;;;;4228942;28;20637;-70
2022/11/07 06:05:52;;;;;;;4.60;1.20;;;9.40;99.90;;;;;;4227750;28;20188;-70
2022/11/07 06:07:54;;;;;;;2.90;2.37;;;9.40;99.90;;;;;;4229137;28;20174;-71
2022/11/07 06:09:54;;;;;;;3.53;1.30;;;9.40;99.90;;;;;;4229052;28;20194;-70
2022/11/07 06:11:55;;;;;;;4.17;2.60;;;9.40;99.90;;;;;;4228459;28;20597;-70
2022/11/07 06:13:55;;;;;;;5.57;1.40;;;9.30;99.90;;;;;;4229171;28;20182;-71
2022/11/07 06:15:57;;;;;;;3.90;1.37;;;9.50;99.90;;;;;;4229063;28;20224;-71
2022/11/07 06:18:03;;;;;;;2.63;1.40;;;9.40;99.90;;;;;;4235990;28;20544;-71
2022/11/07 06:20:04;;;;;;;3.53;1.27;;;9.40;99.90;;;;;;4241952;28;20209;-70
2022/11/07 06:22:05;;;;;;;6.83;1.30;;;9.40;99.90;;;;;;4228414;28;20265;-71
2022/11/07 06:24:06;;;;;;;1.83;1.10;;;9.40;99.90;;;;;;4229514;28;20226;-71
2022/11/07 06:26:07;;;;;;;5.33;1.60;;;9.40;99.90;;;;;;4229624;28;20186;-70
2022/11/07 06:28:12;;;;;;;5.27;1.03;;;9.40;99.90;;;;;;4229853;28;20703;-71
2022/11/07 06:30:13;;;;;;;5.43;5.00;;;9.40;99.90;;;;;;4228753;28;20206;-71
2022/11/07 06:32:13;;;;;;;4.20;1.63;;;9.40;99.90;;;;;;4229158;28;20214;-70
2022/11/07 06:34:14;;;;;;;3.27;1.10;;;9.40;99.90;;;;;;4229218;28;20178;-70
2022/11/07 06:36:15;;;;;;;6.13;2.97;;;9.40;99.90;;;;;;4229167;28;20179;-71
2022/11/07 06:38:15;;;;;;;3.40;2.13;;;9.40;99.90;;;;;;4229186;28;20279;-71
2022/11/07 06:40:16;;;;;;;2.57;1.07;;;9.40;99.90;;;;;;4227848;28;20209;-70
2022/11/07 06:42:17;;;;;;;2.37;1.10;;;9.40;99.90;;;;;;4229224;28;20183;-71
2022/11/07 06:44:17;;;;;;;2.27;1.23;;;9.40;99.90;;;;;;4229148;28;20174;-71
2022/11/07 06:46:21;;;;;;;4.83;1.17;;;9.40;99.90;;;;;;4229289;28;20585;-71
2022/11/07 06:48:22;;;;;;;5.73;1.30;;;9.50;99.90;;;;;;4229090;28;20594;-70
2022/11/07 06:50:22;;;;;;;4.77;1.47;;;9.50;99.90;;;;;;4228322;28;20206;-71
2022/11/07 06:52:23;;;;;;;3.87;1.37;;;9.50;99.90;;;;;;4229366;28;20178;-71
2022/11/07 06:54:24;;;;;;;6.43;1.83;;;9.50;99.90;;;;;;4232421;28;20175;-70
2022/11/07 06:56:24;;;;;;;5.03;2.80;;;9.50;99.90;;;;;;4232371;28;20182;-70
2022/11/07 06:58:25;;;;;;;2.70;1.30;;;9.50;99.90;;;;;;4230867;28;20231;-71
2022/11/07 07:00:28;;;;;;;6.93;1.60;;;9.50;99.90;;;;;;4232007;28;20189;-70
2022/11/07 07:02:28;;;;;;;4.50;1.50;;;9.50;99.90;;;;;;4232037;28;20187;-71
2022/11/07 07:04:29;;;;;;;3.07;1.13;;;9.60;99.90;;;;;;4232038;28;20718;-71
2022/11/07 07:06:30;;;;;;;1.80;1.10;;;9.70;99.30;;;;;;4232048;28;20618;-71
2022/11/07 07:08:32;;;;;;;7.10;1.50;;;9.70;99.70;;;;;;4231876;28;20190;-71
2022/11/07 07:10:43;;;;;;;2.57;1.10;;;9.60;99.70;;;;;;4231325;27;20282;-71
2022/11/07 07:12:43;;;;;;;3.63;1.00;;;9.60;99.90;;;;;;4231984;28;20162;-71
2022/11/07 07:14:44;;;;;;;7.70;2.33;;;9.60;99.10;;;;;;4231754;28;20644;-71
2022/11/07 07:16:45;;;;;;;2.60;1.40;;;9.60;99.30;;;;;;4232000;28;20653;-71
2022/11/07 07:18:45;;;;;;;3.67;1.67;;;9.60;99.20;;;;;;4232121;28;20765;-71
2022/11/07 07:20:48;;;;;;;3.23;2.43;;;9.80;99.80;;;;;;4231283;28;20272;-70
2022/11/07 07:22:48;;;;;;;2.83;1.20;;;9.70;99.00;;;;;;4231883;28;20653;-70
2022/11/07 07:24:52;;;;;;;4.67;1.20;;;9.70;99.00;;;;;;4231268;28;20267;-70
2022/11/07 07:26:53;;;;;;;2.80;1.30;;;9.70;99.00;;;;;;4224851;28;20569;-70
2022/11/07 07:28:53;;;;;;;3.03;1.00;;;9.80;98.90;;;;;;4214692;28;20214;-70
2022/11/07 07:31:09;;;;;;;2.83;1.10;;;9.90;98.90;;;;;;4214033;28;20210;-70
2022/11/07 07:33:10;;;;;;;1.90;1.10;;;9.80;98.70;;;;;;4214778;28;20175;-70
2022/11/07 07:35:11;;;;;;;3.13;1.60;;;9.80;98.70;;;;;;4226178;28;20193;-70
2022/11/07 07:37:11;;;;;;;2.47;1.03;;;9.80;98.10;;;;;;4231920;28;20182;-70
2022/11/07 07:39:12;;;;;;;9.13;8.53;;;9.80;98.80;;;;;;4231773;28;20205;-70
2022/11/07 07:41:13;;;;;;;2.90;2.70;;;9.70;99.10;;;;;;4230855;28;20189;-71
2022/11/07 07:43:13;;;;;;;3.17;0.90;;;9.60;98.70;;;;;;4231644;28;20289;-70
2022/11/07 07:45:15;;;;;;;3.07;1.33;;;9.70;98.70;;;;;;4247021;27;20185;-70
2022/11/07 07:47:16;;;;;;;3.83;1.07;;;9.80;98.60;;;;;;4231288;28;20257;-70
2022/11/07 07:49:16;;;;;;;2.17;1.10;;;9.80;98.20;;;;;;4231398;28;20206;-69
2022/11/07 07:51:17;;;;;;;5.90;0.90;;;10.00;97.90;;;;;;4230533;28;20202;-69
2022/11/07 07:53:18;;;;;;;4.20;1.10;;;10.20;97.60;;;;;;4231246;28;20174;-70
2022/11/07 07:55:19;;;;;;;2.60;1.20;;;10.30;96.60;;;;;;4231386;28;20239;-69
2022/11/07 07:57:19;;;;;;;2.13;1.10;;;10.40;96.30;;;;;;4231391;28;20196;-70
2022/11/07 07:59:20;;;;;;;4.20;1.37;;;10.50;96.10;;;;;;4231281;28;20190;-70
2022/11/07 08:01:21;;;;;;;4.40;1.30;;;10.60;95.90;;;;;;4230770;28;20227;-69
2022/11/07 08:03:21;;;;;;;1.63;1.00;;;10.70;95.50;;;;;;4231506;28;20186;-69
2022/11/07 08:05:22;;;;;;;6.50;1.67;;;10.60;96.50;;;;;;4230745;28;20178;-70
2022/11/07 08:07:23;;;;;;;3.57;1.40;;;10.70;95.80;;;;;;4231345;28;20174;-70
2022/11/07 08:09:23;;;;;;;2.33;1.00;;;10.60;96.10;;;;;;4231431;28;20209;-69
2022/11/07 08:11:24;;;;;;;3.97;0.90;;;10.60;95.50;;;;;;4230503;28;20289;-70
2022/11/07 08:13:25;;;;;;;3.27;1.03;;;10.60;96.30;;;;;;4229697;28;20186;-69
2022/11/07 08:15:26;;;;;;;2.53;1.53;;;10.70;95.80;;;;;;4231103;28;20178;-74
2022/11/07 08:17:27;;;;;;;2.00;1.00;;;10.80;95.40;;;;;;4231034;28;20261;-67
2022/11/07 08:19:27;;;;;;;3.30;1.10;;;10.70;95.40;;;;;;4232934;28;20197;-66
2022/11/07 08:21:28;;;;;;;4.30;1.37;;;10.70;96.30;;;;;;4241046;28;20191;-66
2022/11/07 08:23:30;;;;;;;3.90;2.40;;;10.50;96.70;;;;;;4233462;28;20239;-66
2022/11/07 08:25:30;;;;;;;2.77;1.10;;;10.30;97.60;;;;;;4231415;28;20175;-66
2022/11/07 08:27:31;;;;;;;2.07;1.77;;;10.30;98.30;;;;;;4231133;28;20209;-66
2022/11/07 08:29:32;;;;;;;3.60;1.20;;;10.20;98.60;;;;;;4230870;28;20213;-66
2022/11/07 08:31:32;;;;;;;5.20;1.77;;;10.00;99.40;;;;;;4230109;28;20202;-66
2022/11/07 08:33:34;;;;;;;5.47;3.40;;;10.10;99.80;;;;;;4230877;28;20178;-66
2022/11/07 08:35:35;;;;;;;1.80;1.10;;;10.20;99.50;;;;;;4230665;28;20187;-66
2022/11/07 08:37:36;;;;;;;6.67;1.47;;;10.30;99.40;;;;;;4230658;28;20727;-66
2022/11/07 08:39:37;;;;;;;4.03;1.33;;;10.40;98.90;;;;;;4230537;28;20692;-66
2022/11/07 08:41:37;;;;;;;2.67;1.40;;;10.50;98.50;;;;;;4229980;28;20185;-66
2022/11/07 08:43:38;;;;;;;4.97;4.50;;;10.50;98.20;;;;;;4230614;28;20234;-66
2022/11/07 08:45:39;;;;;;;2.80;1.07;;;10.50;98.00;;;;;;4230362;28;20650;-66
2022/11/07 08:47:39;;;;;;;2.43;1.13;;;10.50;98.40;;;;;;4230373;28;20889;-66
2022/11/07 08:49:40;;;;;;;2.83;1.30;;;10.50;98.20;;;;;;4230651;28;20198;-66
2022/11/07 08:51:41;;;;;;;2.70;1.00;;;10.60;97.80;;;;;;4229639;28;20210;-66
2022/11/07 08:53:41;;;;;;;2.90;1.13;;;10.70;97.90;;;;;;4230446;28;20184;-66
2022/11/07 08:55:42;;;;;;;4.03;1.33;;;11.10;97.10;;;;;;4230415;28;20187;-66
2022/11/07 08:57:43;;;;;;;3.50;1.20;;;11.30;95.80;;;;;;4230601;28;20233;-67
2022/11/07 08:59:43;;;;;;;3.73;1.43;;;11.30;95.90;;;;;;4230317;28;20198;-66
2022/11/07 09:01:44;;;;;;;5.93;1.83;;;11.40;95.30;;;;;;4229498;28;20649;-66
2022/11/07 09:03:45;;;;;;;5.53;3.60;;;11.40;95.30;;;;;;4230152;28;20220;-66
2022/11/07 09:05:45;;;;;;;4.43;2.73;;;11.40;95.10;;;;;;4230028;28;20192;-67
2022/11/07 09:07:46;;;;;;;3.10;1.50;;;11.20;95.10;;;;;;4230020;28;20299;-67
2022/11/07 09:09:47;;;;;;;4.47;1.60;;;11.10;95.40;;;;;;4229961;28;20204;-67
2022/11/07 09:11:47;;;;;;;2.00;1.40;;;11.10;95.80;;;;;;4229379;28;20183;-67
2022/11/07 09:13:48;;;;;;;9.60;4.33;;;11.40;95.60;;;;;;4230060;28;20689;-67
2022/11/07 09:15:49;;;;;;;6.23;2.10;;;11.60;94.80;;;;;;4229342;28;20553;-67
2022/11/07 09:17:49;;;;;;;2.87;1.57;;;11.70;93.90;;;;;;4229575;28;20234;-67
2022/11/07 09:19:50;;;;;;;3.63;3.33;;;11.80;93.60;;;;;;4229915;28;20210;-67
2022/11/07 09:21:51;;;;;;;3.67;2.37;;;11.80;93.30;;;;;;4229339;28;20182;-67
2022/11/07 09:23:52;;;;;;;1.97;1.10;;;11.80;93.10;;;;;;4229675;28;20201;-67
2022/11/07 09:25:52;;;;;;;2.57;2.13;;;11.80;93.40;;;;;;4229800;28;20181;-67
2022/11/07 09:27:54;;;;;;;3.67;1.70;;;11.90;92.80;;;;;;4229699;28;20315;-67
2022/11/07 09:29:54;;;;;;;6.53;6.00;;;11.90;93.10;;;;;;4229794;28;20206;-67
2022/11/07 09:31:55;;;;;;;4.20;3.70;;;11.80;92.50;;;;;;4229001;28;20174;-67
2022/11/07 09:33:56;;;;;;;2.93;2.53;;;11.80;92.30;;;;;;4229560;28;20231;-67
2022/11/07 09:36:04;;;;;;;3.43;1.30;;;11.80;92.50;;;;;;4215911;28;20186;-67
2022/11/07 09:38:05;;;;;;;2.33;1.33;;;11.90;92.30;;;;;;4213033;28;20171;-67
2022/11/07 09:40:53;;;;;;;2.03;1.37;;;11.90;92.40;;;;;;4212653;28;20713;-67
2022/11/07 09:43:26;;;;;;;1.10;0.90;;;12.10;92.70;;;;;;4212723;28;20185;-67
2022/11/07 09:45:29;;;;;;;2.40;1.10;;;12.40;91.60;;;;;;4212637;28;20163;-67
2022/11/07 09:47:45;;;;;;;2.30;0.90;;;12.90;90.20;;;;;;4211374;28;20677;-67
2022/11/07 09:49:58;;;;;;;4.40;1.93;;;13.20;86.80;;;;;;4220006;28;20200;-67
2022/11/07 09:52:37;;;;;;;2.90;1.80;;;13.40;86.00;;;;;;4229088;28;20162;-67
2022/11/07 09:54:45;;;;;;;2.27;0.90;;;13.50;83.50;;;;;;4177217;28;20200;-67
2022/11/07 09:56:46;;;;;;;1.33;0.93;;;13.90;81.10;;;;;;4202493;28;20740;-67
2022/11/07 09:58:53;;;;;;;25.87;24.50;;;14.10;78.60;;;;;;4229441;28;20202;-67
2022/11/07 10:01:00;;;;;;;23.13;22.07;;;14.80;76.70;;;;;;4228750;28;20212;-67
2022/11/07 10:03:02;;;;;;;3.13;2.87;;;14.80;74.40;;;;;;4228241;28;20181;-67
2022/11/07 10:05:03;;;;;;;22.47;21.27;;;14.60;76.30;;;;;;4229170;28;20178;-67
2022/11/07 10:07:45;;;;;;;1.80;1.10;;;14.20;76.30;;;;;;4229349;28;20185;-67
2022/11/07 10:09:50;;;;;;;5.30;4.37;;;14.10;79.20;;;;;;4229972;28;20689;-66
2022/11/07 10:12:22;;;;;;;5.20;4.80;;;14.20;77.40;;;;;;4228538;28;20247;-66
2022/11/07 10:14:57;;;;;;;3.70;2.13;;;14.00;76.40;;;;;;4229163;28;20170;-66
2022/11/07 10:17:42;;;;;;;2.83;1.47;;;13.60;78.70;;;;;;4229208;28;20577;-67
2022/11/07 10:20:11;;;;;;;3.33;1.20;;;13.90;78.50;;;;;;4229335;28;20751;-67
2022/11/07 10:22:33;;;;;;;3.80;3.50;;;14.20;78.20;;;;;;4230327;28;20192;-68
2022/11/07 10:24:56;;;;;;;2.30;1.20;;;14.00;76.60;;;;;;4237988;28;20185;-68
2022/11/07 10:26:57;;;;;;;3.93;1.00;;;14.10;76.60;;;;;;4229191;28;20192;-68
2022/11/07 10:29:19;;;;;;;6.70;6.10;;;14.70;74.10;;;;;;4229764;28;20684;-66
2022/11/07 10:31:20;;;;;;;17.27;16.30;;;15.30;71.50;;;;;;4228754;28;20190;-66
2022/11/07 10:33:40;;;;;;;3.73;2.80;;;14.90;70.00;;;;;;4229473;28;20181;-66
2022/11/07 10:35:55;;;;;;;3.23;2.40;;;14.90;72.00;;;;;;4228189;28;20765;-66
2022/11/07 10:38:03;;;;;;;4.17;1.00;;;15.70;68.20;;;;;;4228253;28;20167;-66
2022/11/07 10:40:27;;;;;;;2.37;0.90;;;15.20;70.00;;;;;;4228201;28;20196;-66
2022/11/07 10:42:30;;;;;;;4.47;1.80;;;15.10;70.50;;;;;;4228022;28;20544;-66
2022/11/07 10:44:31;;;;;;;4.53;1.20;;;15.00;70.90;;;;;;4229334;28;20193;-67
2022/11/07 10:46:45;;;;;;;10.33;9.53;;;14.30;72.90;;;;;;4229212;28;20177;-67
2022/11/07 10:49:00;;;;;;;7.47;6.93;;;14.10;73.80;;;;;;4228907;28;20274;-65
2022/11/07 10:51:03;;;;;;;13.33;12.53;;;13.80;77.30;;;;;;4228121;28;20700;-65
2022/11/07 10:53:08;;;;;;;2.87;2.57;;;13.80;76.30;;;;;;4227665;28;20197;-66
2022/11/07 10:55:16;;;;;;;3.57;1.40;;;13.80;76.20;;;;;;4228726;28;20180;-65
2022/11/07 10:57:22;;;;;;;2.67;2.00;;;13.80;75.40;;;;;;4228881;28;20231;-65
2022/11/07 10:59:27;;;;;;;4.13;1.40;;;13.70;75.40;;;;;;4228758;28;20812;-65